Decoded Metar for YGLA ( in ) (IATA:) | Meteo·Mobile Aviation Weather
aviador You're here:

YGLA Decoded Metar

in
Report Time2019-01-20 10:30:00
UTC Time2019-01-20 11:10:55
Flight Rules vfr VFR
Wind110° at 12 kt
W.Decomp.*RWY 10: 11.8 kt HW 2.1 kt RCW
W.Rank110° ranks 3
Current wind is above 110° avg. (11.5)
Visibility9999 m
Phenomena:N/A
Clouds:N/A
Expected CloudBase > 2,800 ft AGL from Temp-Dew spread
CeilingNone
Temp27°C
Dew Point20°C (66% RH)
Heat Index28.5°C
AAT26.4°C
QNH1016 hPa
Raw Report
METAR YGLA 201030Z AUTO 11012KT 9999 // NCD 27/20 Q1016
RF00.0/000.0=

Extra information for YGLA:More info

Social comments